sensor_id;sensor_type;location;lat;lon;timestamp;temperature;humidity
55091;DHT22;40985;53.180;5.800;2023-06-22T00:00:27;16.20;99.90
55091;DHT22;40985;53.180;5.800;2023-06-22T00:02:53;16.10;99.90
55091;DHT22;40985;53.180;5.800;2023-06-22T00:05:19;16.10;99.90
55091;DHT22;40985;53.180;5.800;2023-06-22T00:07:44;16.10;99.90
55091;DHT22;40985;53.180;5.800;2023-06-22T00:10:10;16.10;99.90
55091;DHT22;40985;53.180;5.800;2023-06-22T00:12:36;16.00;99.90
55091;DHT22;40985;53.180;5.800;2023-06-22T00:15:01;16.00;99.90
55091;DHT22;40985;53.180;5.800;2023-06-22T00:17:27;15.90;99.90
55091;DHT22;40985;53.180;5.800;2023-06-22T00:19:53;15.90;99.90
55091;DHT22;40985;53.180;5.800;2023-06-22T00:22:21;15.90;99.90
55091;DHT22;40985;53.180;5.800;2023-06-22T00:24:55;15.90;99.90
55091;DHT22;40985;53.180;5.800;2023-06-22T00:27:20;16.00;99.90
55091;DHT22;40985;53.180;5.800;2023-06-22T00:29:46;15.90;99.90
55091;DHT22;40985;53.180;5.800;2023-06-22T00:32:12;15.90;99.90
55091;DHT22;40985;53.180;5.800;2023-06-22T00:34:38;15.90;99.90
55091;DHT22;40985;53.180;5.800;2023-06-22T00:37:03;15.90;99.90
55091;DHT22;40985;53.180;5.800;2023-06-22T00:39:29;15.90;99.90
55091;DHT22;40985;53.180;5.800;2023-06-22T00:41:55;15.80;99.90
55091;DHT22;40985;53.180;5.800;2023-06-22T00:44:21;15.80;99.90
55091;DHT22;40985;53.180;5.800;2023-06-22T00:46:47;15.80;99.90
55091;DHT22;40985;53.180;5.800;2023-06-22T00:49:13;15.80;99.90
55091;DHT22;40985;53.180;5.800;2023-06-22T00:51:38;15.80;99.90
55091;DHT22;40985;53.180;5.800;2023-06-22T00:54:05;15.70;99.90
55091;DHT22;40985;53.180;5.800;2023-06-22T00:56:32;15.70;99.90
55091;DHT22;40985;53.180;5.800;2023-06-22T00:58:58;15.70;99.90
55091;DHT22;40985;53.180;5.800;2023-06-22T01:01:25;15.70;99.90
55091;DHT22;40985;53.180;5.800;2023-06-22T01:03:51;15.70;99.90
55091;DHT22;40985;53.180;5.800;2023-06-22T01:06:25;15.70;99.90
55091;DHT22;40985;53.180;5.800;2023-06-22T01:09:00;15.70;99.90
55091;DHT22;40985;53.180;5.800;2023-06-22T01:11:45;15.60;99.90
55091;DHT22;40985;53.180;5.800;2023-06-22T01:14:15;15.60;99.90
55091;DHT22;40985;53.180;5.800;2023-06-22T01:16:44;15.50;99.90
55091;DHT22;40985;53.180;5.800;2023-06-22T01:21:49;15.50;99.90
55091;DHT22;40985;53.180;5.800;2023-06-22T01:30:03;15.40;99.90
55091;DHT22;40985;53.180;5.800;2023-06-22T01:32:33;15.40;99.90
55091;DHT22;40985;53.180;5.800;2023-06-22T01:35:01;15.30;99.90
55091;DHT22;40985;53.180;5.800;2023-06-22T01:37:29;15.40;99.90
55091;DHT22;40985;53.180;5.800;2023-06-22T01:39:57;15.30;99.90
55091;DHT22;40985;53.180;5.800;2023-06-22T01:42:24;15.30;99.90
55091;DHT22;40985;53.180;5.800;2023-06-22T01:44:52;15.30;99.90
55091;DHT22;40985;53.180;5.800;2023-06-22T01:47:19;15.30;99.90
55091;DHT22;40985;53.180;5.800;2023-06-22T01:49:46;15.30;99.90
55091;DHT22;40985;53.180;5.800;2023-06-22T01:52:11;15.30;99.90
55091;DHT22;40985;53.180;5.800;2023-06-22T01:54:39;15.30;99.90
55091;DHT22;40985;53.180;5.800;2023-06-22T01:57:05;15.30;99.90
55091;DHT22;40985;53.180;5.800;2023-06-22T02:00:01;15.30;99.90
55091;DHT22;40985;53.180;5.800;2023-06-22T02:02:33;15.40;99.90
55091;DHT22;40985;53.180;5.800;2023-06-22T02:05:06;15.50;99.90
55091;DHT22;40985;53.180;5.800;2023-06-22T02:07:44;15.50;99.90
55091;DHT22;40985;53.180;5.800;2023-06-22T02:10:10;15.50;99.90
55091;DHT22;40985;53.180;5.800;2023-06-22T02:12:40;15.50;99.90
55091;DHT22;40985;53.180;5.800;2023-06-22T02:15:08;15.50;99.90
55091;DHT22;40985;53.180;5.800;2023-06-22T02:17:34;15.50;99.90
55091;DHT22;40985;53.180;5.800;2023-06-22T02:20:02;15.50;99.90
55091;DHT22;40985;53.180;5.800;2023-06-22T02:22:34;15.50;99.90
55091;DHT22;40985;53.180;5.800;2023-06-22T02:25:00;15.50;99.90
55091;DHT22;40985;53.180;5.800;2023-06-22T02:27:25;15.50;99.90
55091;DHT22;40985;53.180;5.800;2023-06-22T02:29:51;15.40;99.90
55091;DHT22;40985;53.180;5.800;2023-06-22T02:32:17;15.50;99.90
55091;DHT22;40985;53.180;5.800;2023-06-22T02:34:43;15.50;99.90
55091;DHT22;40985;53.180;5.800;2023-06-22T02:37:13;15.50;99.90
55091;DHT22;40985;53.180;5.800;2023-06-22T02:43:21;15.50;99.90
55091;DHT22;40985;53.180;5.800;2023-06-22T02:45:46;15.40;99.90
55091;DHT22;40985;53.180;5.800;2023-06-22T02:48:12;15.40;99.90
55091;DHT22;40985;53.180;5.800;2023-06-22T02:50:38;15.30;99.90
55091;DHT22;40985;53.180;5.800;2023-06-22T02:53:03;15.20;99.90
55091;DHT22;40985;53.180;5.800;2023-06-22T02:55:29;15.30;99.90
55091;DHT22;40985;53.180;5.800;2023-06-22T02:57:55;15.30;99.90
55091;DHT22;40985;53.180;5.800;2023-06-22T03:00:20;15.30;99.90
55091;DHT22;40985;53.180;5.800;2023-06-22T03:02:48;15.20;99.90
55091;DHT22;40985;53.180;5.800;2023-06-22T03:05:14;15.30;99.90
55091;DHT22;40985;53.180;5.800;2023-06-22T03:07:41;15.20;99.90
55091;DHT22;40985;53.180;5.800;2023-06-22T03:10:11;15.20;99.90
55091;DHT22;40985;53.180;5.800;2023-06-22T03:12:37;15.10;99.90
55091;DHT22;40985;53.180;5.800;2023-06-22T03:15:09;15.10;99.90
55091;DHT22;40985;53.180;5.800;2023-06-22T03:17:36;15.10;99.90
55091;DHT22;40985;53.180;5.800;2023-06-22T03:20:02;15.10;99.90
55091;DHT22;40985;53.180;5.800;2023-06-22T03:22:38;15.10;99.90
55091;DHT22;40985;53.180;5.800;2023-06-22T03:25:04;15.10;99.90
55091;DHT22;40985;53.180;5.800;2023-06-22T03:27:36;15.10;99.90
55091;DHT22;40985;53.180;5.800;2023-06-22T03:30:02;15.00;99.90
55091;DHT22;40985;53.180;5.800;2023-06-22T03:32:28;15.10;99.90
55091;DHT22;40985;53.180;5.800;2023-06-22T03:34:54;15.10;99.90
55091;DHT22;40985;53.180;5.800;2023-06-22T03:37:19;15.10;99.90
55091;DHT22;40985;53.180;5.800;2023-06-22T03:39:45;15.10;99.90
55091;DHT22;40985;53.180;5.800;2023-06-22T03:42:11;15.00;99.90
55091;DHT22;40985;53.180;5.800;2023-06-22T03:44:36;15.00;99.90
55091;DHT22;40985;53.180;5.800;2023-06-22T03:47:05;15.00;99.90
55091;DHT22;40985;53.180;5.800;2023-06-22T03:49:33;15.10;99.90
55091;DHT22;40985;53.180;5.800;2023-06-22T03:52:00;15.00;99.90
55091;DHT22;40985;53.180;5.800;2023-06-22T03:54:27;15.00;99.90
55091;DHT22;40985;53.180;5.800;2023-06-22T03:56:53;15.10;99.90
55091;DHT22;40985;53.180;5.800;2023-06-22T03:59:19;15.00;99.90
55091;DHT22;40985;53.180;5.800;2023-06-22T04:01:44;15.00;99.90
55091;DHT22;40985;53.180;5.800;2023-06-22T04:04:10;15.00;99.90
55091;DHT22;40985;53.180;5.800;2023-06-22T04:06:36;15.00;99.90
55091;DHT22;40985;53.180;5.800;2023-06-22T04:09:02;15.10;99.90
55091;DHT22;40985;53.180;5.800;2023-06-22T04:11:28;15.00;99.90
55091;DHT22;40985;53.180;5.800;2023-06-22T04:13:53;15.10;99.90
55091;DHT22;40985;53.180;5.800;2023-06-22T04:16:19;15.20;99.90
55091;DHT22;40985;53.180;5.800;2023-06-22T04:18:45;15.20;99.90
55091;DHT22;40985;53.180;5.800;2023-06-22T04:21:10;15.10;99.90
55091;DHT22;40985;53.180;5.800;2023-06-22T04:23:36;15.20;99.90
55091;DHT22;40985;53.180;5.800;2023-06-22T04:26:02;15.20;99.90
55091;DHT22;40985;53.180;5.800;2023-06-22T04:28:27;15.20;99.90
55091;DHT22;40985;53.180;5.800;2023-06-22T04:30:53;15.30;99.90
55091;DHT22;40985;53.180;5.800;2023-06-22T04:33:23;15.30;99.90
55091;DHT22;40985;53.180;5.800;2023-06-22T04:35:49;15.30;99.90
55091;DHT22;40985;53.180;5.800;2023-06-22T04:38:16;15.50;99.90
55091;DHT22;40985;53.180;5.800;2023-06-22T04:40:42;15.40;99.90
55091;DHT22;40985;53.180;5.800;2023-06-22T04:43:07;15.60;99.90
55091;DHT22;40985;53.180;5.800;2023-06-22T04:45:35;15.50;99.90
55091;DHT22;40985;53.180;5.800;2023-06-22T04:48:04;15.60;99.90
55091;DHT22;40985;53.180;5.800;2023-06-22T04:50:30;15.60;99.90
55091;DHT22;40985;53.180;5.800;2023-06-22T04:52:55;15.60;99.90
55091;DHT22;40985;53.180;5.800;2023-06-22T04:55:21;15.60;99.90
55091;DHT22;40985;53.180;5.800;2023-06-22T04:57:47;15.80;99.90
55091;DHT22;40985;53.180;5.800;2023-06-22T05:00:17;15.70;99.90
55091;DHT22;40985;53.180;5.800;2023-06-22T05:02:44;15.70;99.90
55091;DHT22;40985;53.180;5.800;2023-06-22T05:05:11;15.70;99.90
55091;DHT22;40985;53.180;5.800;2023-06-22T05:07:46;15.70;99.90
55091;DHT22;40985;53.180;5.800;2023-06-22T05:10:16;15.80;99.90
55091;DHT22;40985;53.180;5.800;2023-06-22T05:12:42;15.80;99.90
55091;DHT22;40985;53.180;5.800;2023-06-22T05:15:08;15.90;99.90
55091;DHT22;40985;53.180;5.800;2023-06-22T05:17:36;15.90;99.90
55091;DHT22;40985;53.180;5.800;2023-06-22T05:20:02;15.80;99.90
55091;DHT22;40985;53.180;5.800;2023-06-22T05:22:31;16.00;99.90
55091;DHT22;40985;53.180;5.800;2023-06-22T05:24:57;16.00;99.90
55091;DHT22;40985;53.180;5.800;2023-06-22T05:27:23;16.00;99.90
55091;DHT22;40985;53.180;5.800;2023-06-22T05:29:48;16.20;99.90
55091;DHT22;40985;53.180;5.800;2023-06-22T05:32:14;16.20;99.90
55091;DHT22;40985;53.180;5.800;2023-06-22T05:34:39;16.30;99.90
55091;DHT22;40985;53.180;5.800;2023-06-22T05:37:05;16.40;99.90
55091;DHT22;40985;53.180;5.800;2023-06-22T05:39:31;16.40;99.90
55091;DHT22;40985;53.180;5.800;2023-06-22T05:41:57;16.60;99.90
55091;DHT22;40985;53.180;5.800;2023-06-22T05:44:23;16.50;99.90
55091;DHT22;40985;53.180;5.800;2023-06-22T05:46:48;16.70;99.90
55091;DHT22;40985;53.180;5.800;2023-06-22T05:49:15;16.70;99.90
55091;DHT22;40985;53.180;5.800;2023-06-22T05:51:42;16.80;99.90
55091;DHT22;40985;53.180;5.800;2023-06-22T05:54:08;16.90;99.90
55091;DHT22;40985;53.180;5.800;2023-06-22T05:56:34;16.90;99.90
55091;DHT22;40985;53.180;5.800;2023-06-22T05:59:00;17.00;99.90
55091;DHT22;40985;53.180;5.800;2023-06-22T06:01:25;17.10;99.90
55091;DHT22;40985;53.180;5.800;2023-06-22T06:03:51;17.20;99.90
55091;DHT22;40985;53.180;5.800;2023-06-22T06:06:18;17.20;99.90
55091;DHT22;40985;53.180;5.800;2023-06-22T06:08:46;17.20;99.90
55091;DHT22;40985;53.180;5.800;2023-06-22T06:11:12;17.40;99.90
55091;DHT22;40985;53.180;5.800;2023-06-22T06:13:38;17.40;99.90
55091;DHT22;40985;53.180;5.800;2023-06-22T06:16:03;17.50;99.90
55091;DHT22;40985;53.180;5.800;2023-06-22T06:18:29;17.50;99.90
55091;DHT22;40985;53.180;5.800;2023-06-22T06:20:55;17.60;99.90
55091;DHT22;40985;53.180;5.800;2023-06-22T06:23:20;17.60;99.90
55091;DHT22;40985;53.180;5.800;2023-06-22T06:25:46;17.70;99.90
55091;DHT22;40985;53.180;5.800;2023-06-22T06:28:12;17.80;99.90
55091;DHT22;40985;53.180;5.800;2023-06-22T06:30:37;17.80;99.90
55091;DHT22;40985;53.180;5.800;2023-06-22T06:33:03;17.90;99.90
55091;DHT22;40985;53.180;5.800;2023-06-22T06:35:34;17.90;99.90
55091;DHT22;40985;53.180;5.800;2023-06-22T06:38:00;18.00;99.90
55091;DHT22;40985;53.180;5.800;2023-06-22T06:40:26;18.00;99.90
55091;DHT22;40985;53.180;5.800;2023-06-22T06:42:51;18.00;99.90
55091;DHT22;40985;53.180;5.800;2023-06-22T06:45:19;18.00;99.90
55091;DHT22;40985;53.180;5.800;2023-06-22T06:47:45;18.00;99.90
55091;DHT22;40985;53.180;5.800;2023-06-22T06:50:12;17.90;99.90
55091;DHT22;40985;53.180;5.800;2023-06-22T06:52:38;18.00;99.90
55091;DHT22;40985;53.180;5.800;2023-06-22T06:55:04;18.00;99.90
55091;DHT22;40985;53.180;5.800;2023-06-22T06:57:33;18.00;99.90
55091;DHT22;40985;53.180;5.800;2023-06-22T06:59:59;18.00;99.90
55091;DHT22;40985;53.180;5.800;2023-06-22T07:02:26;18.00;99.90
55091;DHT22;40985;53.180;5.800;2023-06-22T07:04:53;18.10;99.90
55091;DHT22;40985;53.180;5.800;2023-06-22T07:07:21;18.10;99.90
55091;DHT22;40985;53.180;5.800;2023-06-22T07:09:46;18.30;99.90
55091;DHT22;40985;53.180;5.800;2023-06-22T07:12:12;18.30;99.90
55091;DHT22;40985;53.180;5.800;2023-06-22T07:14:38;18.30;99.90
55091;DHT22;40985;53.180;5.800;2023-06-22T07:17:04;18.40;99.90
55091;DHT22;40985;53.180;5.800;2023-06-22T07:19:30;18.40;99.90
55091;DHT22;40985;53.180;5.800;2023-06-22T07:21:57;18.50;99.90
55091;DHT22;40985;53.180;5.800;2023-06-22T07:24:23;18.60;99.90
55091;DHT22;40985;53.180;5.800;2023-06-22T07:26:50;18.70;99.90
55091;DHT22;40985;53.180;5.800;2023-06-22T07:29:20;18.70;99.90
55091;DHT22;40985;53.180;5.800;2023-06-22T07:31:47;18.80;99.90
55091;DHT22;40985;53.180;5.800;2023-06-22T07:34:13;19.00;99.90
55091;DHT22;40985;53.180;5.800;2023-06-22T07:36:39;19.10;99.90
55091;DHT22;40985;53.180;5.800;2023-06-22T07:39:05;19.20;99.90
55091;DHT22;40985;53.180;5.800;2023-06-22T07:41:31;19.20;99.90
55091;DHT22;40985;53.180;5.800;2023-06-22T07:43:57;19.20;99.90
55091;DHT22;40985;53.180;5.800;2023-06-22T07:46:23;19.30;99.90
55091;DHT22;40985;53.180;5.800;2023-06-22T07:48:48;19.40;99.90
55091;DHT22;40985;53.180;5.800;2023-06-22T07:51:14;19.50;99.90
55091;DHT22;40985;53.180;5.800;2023-06-22T07:53:44;19.50;99.90
55091;DHT22;40985;53.180;5.800;2023-06-22T07:56:13;19.60;99.90
55091;DHT22;40985;53.180;5.800;2023-06-22T07:58:39;19.70;99.90
55091;DHT22;40985;53.180;5.800;2023-06-22T08:01:05;19.80;99.90
55091;DHT22;40985;53.180;5.800;2023-06-22T08:03:32;19.90;99.90
55091;DHT22;40985;53.180;5.800;2023-06-22T08:05:57;20.00;99.90
55091;DHT22;40985;53.180;5.800;2023-06-22T08:08:23;20.10;99.90
55091;DHT22;40985;53.180;5.800;2023-06-22T08:10:50;20.20;99.90
55091;DHT22;40985;53.180;5.800;2023-06-22T08:13:15;20.30;99.90
55091;DHT22;40985;53.180;5.800;2023-06-22T08:15:41;20.40;99.90
55091;DHT22;40985;53.180;5.800;2023-06-22T08:18:06;20.60;99.90
55091;DHT22;40985;53.180;5.800;2023-06-22T08:20:32;20.70;99.90
55091;DHT22;40985;53.180;5.800;2023-06-22T08:22:58;20.70;99.90
55091;DHT22;40985;53.180;5.800;2023-06-22T08:25:30;20.80;99.90
55091;DHT22;40985;53.180;5.800;2023-06-22T08:27:56;20.80;99.90
55091;DHT22;40985;53.180;5.800;2023-06-22T08:30:22;20.90;99.90
55091;DHT22;40985;53.180;5.800;2023-06-22T08:32:47;21.00;99.90
55091;DHT22;40985;53.180;5.800;2023-06-22T08:35:13;21.10;99.90
55091;DHT22;40985;53.180;5.800;2023-06-22T08:37:39;21.30;99.90
55091;DHT22;40985;53.180;5.800;2023-06-22T08:40:08;21.40;99.90
55091;DHT22;40985;53.180;5.800;2023-06-22T08:42:35;21.60;99.90
55091;DHT22;40985;53.180;5.800;2023-06-22T08:45:02;21.70;99.90
55091;DHT22;40985;53.180;5.800;2023-06-22T08:47:28;21.80;99.90
55091;DHT22;40985;53.180;5.800;2023-06-22T08:49:54;21.90;99.90
55091;DHT22;40985;53.180;5.800;2023-06-22T08:52:20;21.90;99.90
55091;DHT22;40985;53.180;5.800;2023-06-22T08:54:46;22.00;99.90
55091;DHT22;40985;53.180;5.800;2023-06-22T08:57:12;22.10;99.90
55091;DHT22;40985;53.180;5.800;2023-06-22T08:59:38;22.20;99.90
55091;DHT22;40985;53.180;5.800;2023-06-22T09:02:04;22.30;99.90
55091;DHT22;40985;53.180;5.800;2023-06-22T09:04:29;22.40;99.90
55091;DHT22;40985;53.180;5.800;2023-06-22T09:07:00;22.50;99.90
55091;DHT22;40985;53.180;5.800;2023-06-22T09:09:26;22.50;99.90
55091;DHT22;40985;53.180;5.800;2023-06-22T09:11:52;22.50;99.90
55091;DHT22;40985;53.180;5.800;2023-06-22T09:14:18;22.60;99.90
55091;DHT22;40985;53.180;5.800;2023-06-22T09:16:44;22.70;99.90
55091;DHT22;40985;53.180;5.800;2023-06-22T09:19:10;22.80;99.90
55091;DHT22;40985;53.180;5.800;2023-06-22T09:21:36;22.90;99.90
55091;DHT22;40985;53.180;5.800;2023-06-22T09:24:02;23.00;99.90
55091;DHT22;40985;53.180;5.800;2023-06-22T09:26:28;23.00;99.90
55091;DHT22;40985;53.180;5.800;2023-06-22T09:28:53;23.00;99.90
55091;DHT22;40985;53.180;5.800;2023-06-22T09:31:19;23.00;99.90
55091;DHT22;40985;53.180;5.800;2023-06-22T09:33:52;23.30;99.90
55091;DHT22;40985;53.180;5.800;2023-06-22T09:36:18;23.40;99.90
55091;DHT22;40985;53.180;5.800;2023-06-22T09:38:44;23.40;99.90
55091;DHT22;40985;53.180;5.800;2023-06-22T09:41:10;23.60;99.90
55091;DHT22;40985;53.180;5.800;2023-06-22T09:43:35;23.70;99.90
55091;DHT22;40985;53.180;5.800;2023-06-22T09:46:02;23.80;99.90
55091;DHT22;40985;53.180;5.800;2023-06-22T09:48:28;23.80;99.90
55091;DHT22;40985;53.180;5.800;2023-06-22T09:50:54;23.90;99.90
55091;DHT22;40985;53.180;5.800;2023-06-22T09:53:20;24.00;99.90
55091;DHT22;40985;53.180;5.800;2023-06-22T09:55:46;24.10;99.90
55091;DHT22;40985;53.180;5.800;2023-06-22T09:58:12;24.20;99.90
55091;DHT22;40985;53.180;5.800;2023-06-22T10:00:37;24.10;99.90
55091;DHT22;40985;53.180;5.800;2023-06-22T10:03:03;24.10;99.90
55091;DHT22;40985;53.180;5.800;2023-06-22T10:05:29;24.40;99.90
55091;DHT22;40985;53.180;5.800;2023-06-22T10:07:54;24.40;99.90
55091;DHT22;40985;53.180;5.800;2023-06-22T10:10:20;24.50;99.90
55091;DHT22;40985;53.180;5.800;2023-06-22T10:12:47;24.50;99.90
55091;DHT22;40985;53.180;5.800;2023-06-22T10:15:14;24.60;99.90
55091;DHT22;40985;53.180;5.800;2023-06-22T10:17:40;24.80;99.90
55091;DHT22;40985;53.180;5.800;2023-06-22T10:20:06;24.80;99.90
55091;DHT22;40985;53.180;5.800;2023-06-22T10:22:40;24.70;99.90
55091;DHT22;40985;53.180;5.800;2023-06-22T10:25:07;24.50;99.90
55091;DHT22;40985;53.180;5.800;2023-06-22T10:27:33;24.30;99.90
55091;DHT22;40985;53.180;5.800;2023-06-22T10:29:58;24.30;99.90
55091;DHT22;40985;53.180;5.800;2023-06-22T10:32:24;24.60;99.90
55091;DHT22;40985;53.180;5.800;2023-06-22T10:34:50;24.60;99.90
55091;DHT22;40985;53.180;5.800;2023-06-22T10:37:15;24.50;99.90
55091;DHT22;40985;53.180;5.800;2023-06-22T10:39:41;24.80;99.90
55091;DHT22;40985;53.180;5.800;2023-06-22T10:42:07;25.00;99.90
55091;DHT22;40985;53.180;5.800;2023-06-22T10:44:33;25.00;99.90
55091;DHT22;40985;53.180;5.800;2023-06-22T10:46:58;24.90;99.90
55091;DHT22;40985;53.180;5.800;2023-06-22T10:49:24;24.80;99.90
55091;DHT22;40985;53.180;5.800;2023-06-22T10:51:50;24.80;99.90
55091;DHT22;40985;53.180;5.800;2023-06-22T10:54:15;24.80;99.90
55091;DHT22;40985;53.180;5.800;2023-06-22T10:56:43;24.80;99.90
55091;DHT22;40985;53.180;5.800;2023-06-22T10:59:09;24.80;99.90
55091;DHT22;40985;53.180;5.800;2023-06-22T11:01:35;24.90;99.90
55091;DHT22;40985;53.180;5.800;2023-06-22T11:04:02;25.00;99.90
55091;DHT22;40985;53.180;5.800;2023-06-22T11:06:28;25.10;99.90
55091;DHT22;40985;53.180;5.800;2023-06-22T11:08:54;25.00;99.90
55091;DHT22;40985;53.180;5.800;2023-06-22T11:11:19;24.80;99.90
55091;DHT22;40985;53.180;5.800;2023-06-22T11:13:45;24.90;99.90
55091;DHT22;40985;53.180;5.800;2023-06-22T11:16:11;24.90;99.90
55091;DHT22;40985;53.180;5.800;2023-06-22T11:18:37;25.10;99.90
55091;DHT22;40985;53.180;5.800;2023-06-22T11:21:03;25.10;99.90
55091;DHT22;40985;53.180;5.800;2023-06-22T11:23:29;25.20;99.90
55091;DHT22;40985;53.180;5.800;2023-06-22T11:25:55;25.10;99.90
55091;DHT22;40985;53.180;5.800;2023-06-22T11:28:21;25.00;99.90
55091;DHT22;40985;53.180;5.800;2023-06-22T11:30:46;25.10;99.90
55091;DHT22;40985;53.180;5.800;2023-06-22T11:33:12;25.10;99.90
55091;DHT22;40985;53.180;5.800;2023-06-22T11:35:38;25.30;99.90
55091;DHT22;40985;53.180;5.800;2023-06-22T11:38:03;25.20;99.90
55091;DHT22;40985;53.180;5.800;2023-06-22T11:40:30;25.30;99.90
55091;DHT22;40985;53.180;5.800;2023-06-22T11:42:56;25.60;99.90
55091;DHT22;40985;53.180;5.800;2023-06-22T11:45:22;25.80;99.90
55091;DHT22;40985;53.180;5.800;2023-06-22T11:47:48;25.80;99.90
55091;DHT22;40985;53.180;5.800;2023-06-22T11:50:14;25.70;99.90
55091;DHT22;40985;53.180;5.800;2023-06-22T11:52:39;25.80;99.90
55091;DHT22;40985;53.180;5.800;2023-06-22T11:55:06;25.80;99.90
55091;DHT22;40985;53.180;5.800;2023-06-22T11:57:39;25.70;99.90
55091;DHT22;40985;53.180;5.800;2023-06-22T12:00:17;25.80;99.90
55091;DHT22;40985;53.180;5.800;2023-06-22T12:02:44;25.80;99.90
55091;DHT22;40985;53.180;5.800;2023-06-22T12:05:10;25.60;99.90
55091;DHT22;40985;53.180;5.800;2023-06-22T12:07:36;25.60;99.90
55091;DHT22;40985;53.180;5.800;2023-06-22T12:10:03;25.50;99.90
55091;DHT22;40985;53.180;5.800;2023-06-22T12:12:29;25.50;99.90
55091;DHT22;40985;53.180;5.800;2023-06-22T12:14:55;25.30;99.90
55091;DHT22;40985;53.180;5.800;2023-06-22T12:17:20;25.30;99.90
55091;DHT22;40985;53.180;5.800;2023-06-22T12:19:46;25.10;99.90
55091;DHT22;40985;53.180;5.800;2023-06-22T12:22:12;24.90;99.90
55091;DHT22;40985;53.180;5.800;2023-06-22T12:24:37;24.80;99.90
55091;DHT22;40985;53.180;5.800;2023-06-22T12:27:03;24.70;99.90
55091;DHT22;40985;53.180;5.800;2023-06-22T12:29:29;24.50;99.90
55091;DHT22;40985;53.180;5.800;2023-06-22T12:31:55;24.60;99.90
55091;DHT22;40985;53.180;5.800;2023-06-22T12:34:21;24.60;99.90
55091;DHT22;40985;53.180;5.800;2023-06-22T12:36:46;24.60;99.90
55091;DHT22;40985;53.180;5.800;2023-06-22T12:39:15;24.60;99.90
55091;DHT22;40985;53.180;5.800;2023-06-22T12:41:41;24.40;99.90
55091;DHT22;40985;53.180;5.800;2023-06-22T12:44:06;24.50;99.90
55091;DHT22;40985;53.180;5.800;2023-06-22T12:46:32;24.50;99.90
55091;DHT22;40985;53.180;5.800;2023-06-22T12:49:03;24.60;99.90
55091;DHT22;40985;53.180;5.800;2023-06-22T12:51:30;24.60;99.90
55091;DHT22;40985;53.180;5.800;2023-06-22T12:53:56;24.50;99.90
55091;DHT22;40985;53.180;5.800;2023-06-22T12:56:22;24.50;99.90
55091;DHT22;40985;53.180;5.800;2023-06-22T12:58:47;24.50;99.90
55091;DHT22;40985;53.180;5.800;2023-06-22T13:01:13;24.40;99.90
55091;DHT22;40985;53.180;5.800;2023-06-22T13:03:39;24.50;99.90
55091;DHT22;40985;53.180;5.800;2023-06-22T13:06:05;24.40;99.90
55091;DHT22;40985;53.180;5.800;2023-06-22T13:08:30;24.30;99.90
55091;DHT22;40985;53.180;5.800;2023-06-22T13:10:56;24.30;99.90
55091;DHT22;40985;53.180;5.800;2023-06-22T13:13:23;24.30;99.90
55091;DHT22;40985;53.180;5.800;2023-06-22T13:15:50;24.20;99.90
55091;DHT22;40985;53.180;5.800;2023-06-22T13:18:16;24.10;99.90
55091;DHT22;40985;53.180;5.800;2023-06-22T13:20:41;24.20;99.90
55091;DHT22;40985;53.180;5.800;2023-06-22T13:23:07;24.10;99.90
55091;DHT22;40985;53.180;5.800;2023-06-22T13:25:33;24.10;99.90
55091;DHT22;40985;53.180;5.800;2023-06-22T13:27:58;24.10;99.90
55091;DHT22;40985;53.180;5.800;2023-06-22T13:30:24;24.00;99.90
55091;DHT22;40985;53.180;5.800;2023-06-22T13:32:50;24.00;99.90
55091;DHT22;40985;53.180;5.800;2023-06-22T13:35:15;23.90;99.90
55091;DHT22;40985;53.180;5.800;2023-06-22T13:37:41;23.90;99.90
55091;DHT22;40985;53.180;5.800;2023-06-22T13:40:08;23.80;99.90
55091;DHT22;40985;53.180;5.800;2023-06-22T13:42:33;23.60;99.90
55091;DHT22;40985;53.180;5.800;2023-06-22T13:44:59;23.40;99.90
55091;DHT22;40985;53.180;5.800;2023-06-22T13:47:25;23.40;99.90
55091;DHT22;40985;53.180;5.800;2023-06-22T13:49:51;23.50;99.90
55091;DHT22;40985;53.180;5.800;2023-06-22T13:52:16;23.40;99.90
55091;DHT22;40985;53.180;5.800;2023-06-22T13:54:42;23.40;99.90
55091;DHT22;40985;53.180;5.800;2023-06-22T13:57:07;23.30;99.90
55091;DHT22;40985;53.180;5.800;2023-06-22T13:59:33;23.20;99.90
55091;DHT22;40985;53.180;5.800;2023-06-22T14:01:59;23.10;99.90
55091;DHT22;40985;53.180;5.800;2023-06-22T14:04:24;23.10;99.90
55091;DHT22;40985;53.180;5.800;2023-06-22T14:06:50;23.00;99.90
55091;DHT22;40985;53.180;5.800;2023-06-22T14:09:16;22.90;99.90
55091;DHT22;40985;53.180;5.800;2023-06-22T14:11:41;22.80;99.90
55091;DHT22;40985;53.180;5.800;2023-06-22T14:14:07;22.70;99.90
55091;DHT22;40985;53.180;5.800;2023-06-22T14:16:33;22.60;99.90
55091;DHT22;40985;53.180;5.800;2023-06-22T14:18:58;22.50;99.90
55091;DHT22;40985;53.180;5.800;2023-06-22T14:21:25;22.30;99.90
55091;DHT22;40985;53.180;5.800;2023-06-22T14:23:51;22.20;99.90
55091;DHT22;40985;53.180;5.800;2023-06-22T14:26:17;22.20;99.90
55091;DHT22;40985;53.180;5.800;2023-06-22T14:28:46;22.20;99.90
55091;DHT22;40985;53.180;5.800;2023-06-22T14:31:14;22.20;99.90
55091;DHT22;40985;53.180;5.800;2023-06-22T14:33:40;22.20;99.90
55091;DHT22;40985;53.180;5.800;2023-06-22T14:36:06;22.20;99.90
55091;DHT22;40985;53.180;5.800;2023-06-22T14:38:31;22.10;99.90
55091;DHT22;40985;53.180;5.800;2023-06-22T14:40:57;22.00;99.90
55091;DHT22;40985;53.180;5.800;2023-06-22T14:43:23;21.90;99.90
55091;DHT22;40985;53.180;5.800;2023-06-22T14:45:48;21.80;99.90
55091;DHT22;40985;53.180;5.800;2023-06-22T14:48:14;21.70;99.90
55091;DHT22;40985;53.180;5.800;2023-06-22T14:50:40;21.80;99.90
55091;DHT22;40985;53.180;5.800;2023-06-22T14:53:05;21.70;99.90
55091;DHT22;40985;53.180;5.800;2023-06-22T14:55:31;21.70;99.90
55091;DHT22;40985;53.180;5.800;2023-06-22T14:57:56;21.70;99.90
55091;DHT22;40985;53.180;5.800;2023-06-22T15:00:22;21.70;99.90
55091;DHT22;40985;53.180;5.800;2023-06-22T15:02:48;21.70;99.90
55091;DHT22;40985;53.180;5.800;2023-06-22T15:05:14;21.80;99.90
55091;DHT22;40985;53.180;5.800;2023-06-22T15:07:40;21.70;99.90
55091;DHT22;40985;53.180;5.800;2023-06-22T15:10:06;21.70;99.90
55091;DHT22;40985;53.180;5.800;2023-06-22T15:12:32;21.70;99.90
55091;DHT22;40985;53.180;5.800;2023-06-22T15:14:57;21.70;99.90
55091;DHT22;40985;53.180;5.800;2023-06-22T15:17:23;21.80;99.90
55091;DHT22;40985;53.180;5.800;2023-06-22T15:19:49;21.80;99.90
55091;DHT22;40985;53.180;5.800;2023-06-22T15:22:15;21.80;99.90
55091;DHT22;40985;53.180;5.800;2023-06-22T15:24:43;21.80;99.90
55091;DHT22;40985;53.180;5.800;2023-06-22T15:27:10;21.70;99.90
55091;DHT22;40985;53.180;5.800;2023-06-22T15:29:35;21.60;99.90
55091;DHT22;40985;53.180;5.800;2023-06-22T15:32:01;21.60;99.90
55091;DHT22;40985;53.180;5.800;2023-06-22T15:34:27;21.50;99.90
55091;DHT22;40985;53.180;5.800;2023-06-22T15:36:53;21.50;99.90